createdAt,value
2022-12-22T00:01:18.112Z,2.08
2022-12-22T00:04:03.573Z,1.95
2022-12-22T00:06:48.999Z,2.15
2022-12-22T00:09:34.222Z,1.75
2022-12-22T00:12:19.674Z,2.22
2022-12-22T00:15:07.091Z,1.70
2022-12-22T00:17:52.383Z,1.80
2022-12-22T00:20:39.457Z,1.80
2022-12-22T00:23:24.808Z,1.90
2022-12-22T00:26:10.050Z,1.60
2022-12-22T00:28:55.847Z,1.85
2022-12-22T00:31:41.975Z,2.70
2022-12-22T00:34:40.157Z,1.73
2022-12-22T00:37:30.660Z,1.60
2022-12-22T00:40:17.431Z,1.77
2022-12-22T00:43:02.736Z,2.03
2022-12-22T00:45:49.298Z,2.10
2022-12-22T00:48:45.446Z,2.60
2022-12-22T00:51:31.195Z,1.77
2022-12-22T00:54:16.637Z,1.98
2022-12-22T00:57:02.704Z,1.77
2022-12-22T00:59:48.091Z,1.60
2022-12-22T01:02:34.045Z,1.80
2022-12-22T01:05:19.878Z,2.95
2022-12-22T01:08:05.361Z,3.58
2022-12-22T01:10:51.469Z,1.80
2022-12-22T01:13:36.908Z,2.13
2022-12-22T01:16:22.401Z,2.70
2022-12-22T01:19:07.837Z,2.58
2022-12-22T01:21:54.697Z,2.38
2022-12-22T01:24:40.154Z,1.77
2022-12-22T01:27:28.141Z,1.80
2022-12-22T01:30:13.400Z,1.63
2022-12-22T01:32:58.892Z,1.90
2022-12-22T01:35:47.257Z,1.35
2022-12-22T01:38:33.134Z,1.67
2022-12-22T01:41:20.471Z,1.40
2022-12-22T01:44:06.283Z,1.60
2022-12-22T01:47:01.023Z,1.80
2022-12-22T01:49:59.544Z,3.63
2022-12-22T01:52:53.376Z,1.40
2022-12-22T01:55:41.867Z,1.60
2022-12-22T01:58:39.553Z,3.28
2022-12-22T02:01:25.238Z,1.90
2022-12-22T02:04:10.677Z,1.50
2022-12-22T02:07:00.406Z,1.60
2022-12-22T02:09:58.823Z,2.17
2022-12-22T02:13:11.681Z,2.00
2022-12-22T02:16:10.090Z,1.70
2022-12-22T02:19:09.708Z,1.98
2022-12-22T02:22:17.449Z,1.45
2022-12-22T02:25:09.716Z,1.42
2022-12-22T02:27:56.746Z,3.55
2022-12-22T02:30:42.527Z,1.67
2022-12-22T02:33:27.967Z,2.00
2022-12-22T02:36:50.185Z,1.83
2022-12-22T02:39:45.711Z,1.70
2022-12-22T02:42:51.325Z,1.70
2022-12-22T02:45:37.101Z,1.75
2022-12-22T02:48:37.769Z,2.03
2022-12-22T02:51:51.347Z,2.10
2022-12-22T02:54:37.752Z,1.98
2022-12-22T02:57:25.350Z,2.33
2022-12-22T03:00:10.812Z,1.40
2022-12-22T03:02:56.185Z,1.75
2022-12-22T03:05:41.978Z,1.92
2022-12-22T03:08:27.252Z,1.85
2022-12-22T03:11:12.588Z,2.00
2022-12-22T03:13:57.891Z,1.95
2022-12-22T03:16:43.232Z,1.80
2022-12-22T03:19:28.531Z,2.00
2022-12-22T03:22:13.918Z,3.03
2022-12-22T03:24:59.209Z,2.55
2022-12-22T03:27:26.136Z,1.90
2022-12-22T03:29:53.163Z,1.95
2022-12-22T03:32:20.454Z,3.72
2022-12-22T03:34:47.406Z,2.38
2022-12-22T03:37:14.324Z,2.15
2022-12-22T03:39:41.267Z,2.20
2022-12-22T03:42:30.905Z,1.88
2022-12-22T03:45:16.363Z,2.13
2022-12-22T03:47:43.342Z,1.80
2022-12-22T03:50:10.651Z,1.58
2022-12-22T03:52:37.570Z,3.00
2022-12-22T03:55:04.911Z,3.55
2022-12-22T03:57:31.929Z,2.70
2022-12-22T03:59:58.860Z,1.92
2022-12-22T04:02:25.874Z,3.08
2022-12-22T04:04:52.852Z,1.92
2022-12-22T04:07:19.847Z,1.98
2022-12-22T04:10:12.710Z,2.95
2022-12-22T04:12:54.909Z,1.70
2022-12-22T04:15:27.756Z,2.47
2022-12-22T04:17:55.004Z,4.20
2022-12-22T04:20:23.600Z,3.72
2022-12-22T04:22:50.567Z,3.47
2022-12-22T04:25:17.543Z,3.92
2022-12-22T04:27:44.488Z,3.33
2022-12-22T04:30:12.442Z,2.83
2022-12-22T04:32:39.776Z,3.13
2022-12-22T04:35:07.623Z,2.80
2022-12-22T04:37:34.629Z,2.47
2022-12-22T04:40:01.574Z,2.42
2022-12-22T04:42:28.611Z,3.28
2022-12-22T04:44:55.523Z,2.38
2022-12-22T04:47:22.616Z,2.05
2022-12-22T04:49:49.528Z,2.05
2022-12-22T04:52:16.454Z,2.63
2022-12-22T04:54:43.425Z,2.80
2022-12-22T04:57:10.356Z,1.60
2022-12-22T04:59:37.454Z,2.05
2022-12-22T05:02:04.471Z,3.08
2022-12-22T05:04:32.347Z,8.50
2022-12-22T05:06:59.260Z,1.55
2022-12-22T05:09:26.259Z,1.80
2022-12-22T05:11:53.241Z,2.42
2022-12-22T05:14:20.287Z,3.60
2022-12-22T05:16:47.418Z,5.93
2022-12-22T05:19:14.396Z,2.10
2022-12-22T05:21:41.719Z,2.67
2022-12-22T05:24:09.062Z,2.40
2022-12-22T05:26:36.131Z,2.35
2022-12-22T05:29:03.059Z,1.90
2022-12-22T05:31:30.102Z,2.60
2022-12-22T05:33:57.187Z,3.08
2022-12-22T05:36:24.126Z,2.20
2022-12-22T05:38:51.110Z,2.60
2022-12-22T05:41:18.052Z,2.75
2022-12-22T05:43:45.069Z,2.88
2022-12-22T05:46:12.467Z,3.15
2022-12-22T05:48:40.369Z,5.43
2022-12-22T05:51:09.181Z,3.35
2022-12-22T05:53:37.933Z,3.28
2022-12-22T05:56:05.217Z,4.10
2022-12-22T05:58:33.057Z,4.35
2022-12-22T06:01:01.219Z,5.35
2022-12-22T06:03:29.780Z,3.45
2022-12-22T06:05:57.485Z,4.10
2022-12-22T06:08:25.323Z,4.05
2022-12-22T06:10:55.351Z,5.75
2022-12-22T06:13:22.810Z,5.75
2022-12-22T06:15:49.898Z,7.80
2022-12-22T06:18:17.111Z,7.10
2022-12-22T06:20:47.157Z,6.05
2022-12-22T06:23:14.159Z,5.57
2022-12-22T06:25:41.045Z,7.72
2022-12-22T06:28:08.147Z,7.10
2022-12-22T06:30:35.162Z,7.38
2022-12-22T06:33:02.145Z,8.02
2022-12-22T06:35:29.434Z,7.90
2022-12-22T06:37:56.428Z,8.85
2022-12-22T06:40:23.499Z,8.20
2022-12-22T06:43:09.878Z,8.73
2022-12-22T06:45:43.387Z,9.13
2022-12-22T06:48:11.612Z,12.52
2022-12-22T06:50:38.880Z,6.78
2022-12-22T06:53:06.815Z,7.38
2022-12-22T06:55:33.929Z,6.75
2022-12-22T06:58:00.906Z,7.38
2022-12-22T07:00:28.045Z,6.35
2022-12-22T07:02:55.161Z,6.75
2022-12-22T07:05:23.942Z,8.95
2022-12-22T07:07:51.661Z,6.55
2022-12-22T07:10:18.671Z,8.50
2022-12-22T07:12:45.648Z,7.75
2022-12-22T07:15:12.558Z,8.15
2022-12-22T07:17:41.571Z,6.05
2022-12-22T07:20:09.240Z,6.65
2022-12-22T07:22:36.207Z,6.00
2022-12-22T07:25:03.342Z,13.20
2022-12-22T07:27:30.348Z,11.35
2022-12-22T07:29:57.481Z,12.70
2022-12-22T07:32:24.563Z,10.23
2022-12-22T07:34:51.633Z,11.25
2022-12-22T07:37:18.623Z,12.60
2022-12-22T07:39:45.589Z,13.75
2022-12-22T07:42:31.327Z,17.15
2022-12-22T07:44:58.325Z,11.82
2022-12-22T07:47:28.582Z,13.27
2022-12-22T07:50:18.987Z,12.18
2022-12-22T07:52:46.099Z,12.95
2022-12-22T07:55:14.196Z,12.27
2022-12-22T07:57:41.219Z,12.55
2022-12-22T08:00:08.813Z,11.75
2022-12-22T08:02:39.654Z,12.80
2022-12-22T08:05:08.981Z,13.90
2022-12-22T08:07:36.044Z,14.40
2022-12-22T08:10:03.040Z,11.25
2022-12-22T08:12:30.876Z,14.82
2022-12-22T08:14:58.513Z,11.57
2022-12-22T08:17:27.711Z,9.82
2022-12-22T08:19:57.882Z,12.02
2022-12-22T08:22:25.184Z,15.30
2022-12-22T08:24:53.255Z,13.52
2022-12-22T08:27:39.894Z,13.38
2022-12-22T08:30:08.960Z,10.50
2022-12-22T08:32:37.748Z,11.05
2022-12-22T08:35:06.555Z,14.45
2022-12-22T08:37:41.252Z,14.82
2022-12-22T08:40:22.739Z,11.13
2022-12-22T08:42:52.379Z,15.48
2022-12-22T08:45:19.394Z,14.82
2022-12-22T08:47:46.349Z,12.98
2022-12-22T08:50:13.968Z,9.93
2022-12-22T08:52:40.961Z,15.23
2022-12-22T08:55:08.529Z,12.25
2022-12-22T08:57:35.573Z,11.40
2022-12-22T09:00:03.204Z,13.38
2022-12-22T09:02:30.426Z,11.85
2022-12-22T09:04:57.431Z,14.85
2022-12-22T09:07:24.404Z,10.30
2022-12-22T09:09:53.746Z,10.70
2022-12-22T09:12:20.880Z,10.15
2022-12-22T09:14:47.809Z,10.77
2022-12-22T09:17:14.775Z,10.48
2022-12-22T09:19:41.813Z,11.50
2022-12-22T09:22:09.576Z,12.23
2022-12-22T09:24:37.118Z,9.48
2022-12-22T09:27:06.606Z,8.73
2022-12-22T09:29:33.585Z,11.68
2022-12-22T09:32:00.604Z,8.23
2022-12-22T09:34:27.625Z,9.77
2022-12-22T09:36:54.631Z,9.15
2022-12-22T09:39:26.925Z,11.23
2022-12-22T09:41:57.887Z,9.85
2022-12-22T09:44:41.695Z,10.68
2022-12-22T09:47:31.489Z,7.10
2022-12-22T09:49:58.669Z,9.70
2022-12-22T09:52:34.358Z,9.30
2022-12-22T09:55:02.673Z,8.35
2022-12-22T09:57:32.807Z,11.00
2022-12-22T10:00:13.781Z,11.90
2022-12-22T10:02:55.855Z,8.35
2022-12-22T10:05:47.297Z,12.30
2022-12-22T10:08:27.405Z,14.57
2022-12-22T10:10:56.024Z,9.90
2022-12-22T10:13:23.353Z,8.02
2022-12-22T10:15:52.043Z,11.55
2022-12-22T10:18:22.837Z,9.65
2022-12-22T10:21:14.226Z,8.20
2022-12-22T10:23:45.610Z,6.78
2022-12-22T10:26:27.903Z,11.70
2022-12-22T10:29:12.706Z,6.00
2022-12-22T10:32:00.609Z,9.45
2022-12-22T10:34:28.007Z,10.98
2022-12-22T10:37:01.461Z,8.18
2022-12-22T10:39:34.803Z,7.72
2022-12-22T10:42:10.078Z,6.22
2022-12-22T10:44:38.718Z,9.40
2022-12-22T10:47:21.952Z,8.45
2022-12-22T10:52:29.644Z,6.95
2022-12-22T10:55:19.487Z,8.98
2022-12-22T10:57:46.827Z,5.72
2022-12-22T11:00:29.439Z,9.60
2022-12-22T11:02:58.725Z,7.18
2022-12-22T11:05:26.278Z,8.02
2022-12-22T11:07:55.289Z,8.45
2022-12-22T11:10:38.387Z,5.10
2022-12-22T11:13:49.946Z,8.02
2022-12-22T11:16:28.550Z,5.03
2022-12-22T11:19:46.567Z,4.93
2022-12-22T11:22:22.422Z,4.32
2022-12-22T11:25:12.281Z,4.30
2022-12-22T11:28:03.343Z,4.93
2022-12-22T11:30:52.004Z,3.53
2022-12-22T11:33:31.395Z,6.97
2022-12-22T11:36:05.003Z,3.33
2022-12-22T11:38:49.514Z,4.40
2022-12-22T11:41:38.469Z,4.75
2022-12-22T11:44:20.539Z,3.38
2022-12-22T11:47:27.421Z,2.90
2022-12-22T11:50:57.694Z,2.63
2022-12-22T11:53:28.793Z,3.95
2022-12-22T11:56:11.643Z,2.25
2022-12-22T11:59:15.263Z,2.35
2022-12-22T12:02:00.226Z,4.55
2022-12-22T12:04:30.308Z,3.05
2022-12-22T12:07:06.006Z,2.55
2022-12-22T12:10:15.111Z,2.50
2022-12-22T12:13:00.843Z,2.63
2022-12-22T12:15:40.504Z,5.53
2022-12-22T12:18:26.182Z,2.65
2022-12-22T12:21:13.906Z,2.30
2022-12-22T12:24:22.096Z,2.20
2022-12-22T12:26:57.706Z,2.33
2022-12-22T12:29:28.330Z,4.20
2022-12-22T12:32:00.928Z,2.33
2022-12-22T12:34:32.573Z,4.32
2022-12-22T12:37:26.569Z,2.28
2022-12-22T12:40:05.048Z,2.88
2022-12-22T12:42:36.980Z,4.10
2022-12-22T12:45:05.480Z,4.70
2022-12-22T12:47:34.294Z,1.98
2022-12-22T12:50:19.896Z,4.55
2022-12-22T12:52:48.825Z,2.22
2022-12-22T12:55:31.409Z,2.00
2022-12-22T12:58:00.975Z,1.77
2022-12-22T13:00:52.544Z,1.50
2022-12-22T13:03:53.173Z,2.88
2022-12-22T13:06:50.543Z,2.50
2022-12-22T13:12:40.555Z,2.80
2022-12-22T13:15:35.399Z,1.58
2022-12-22T13:18:22.636Z,1.95
2022-12-22T13:21:26.238Z,1.67
2022-12-22T13:24:24.281Z,2.00
2022-12-22T13:26:48.607Z,1.50
2022-12-22T13:29:45.497Z,1.83
2022-12-22T13:32:32.803Z,2.75
2022-12-22T13:35:32.970Z,2.30
2022-12-22T13:38:01.543Z,2.30
2022-12-22T13:40:40.558Z,3.15
2022-12-22T13:43:15.289Z,4.10
2022-12-22T13:45:59.800Z,5.35
2022-12-22T13:48:39.892Z,4.00
2022-12-22T13:51:29.070Z,2.78
2022-12-22T13:54:16.813Z,3.97
2022-12-22T13:56:47.730Z,2.80
2022-12-22T13:59:40.244Z,3.05
2022-12-22T14:02:11.440Z,4.53
2022-12-22T14:04:40.956Z,3.67
2022-12-22T14:07:19.285Z,3.40
2022-12-22T14:09:47.914Z,5.85
2022-12-22T14:12:25.061Z,4.18
2022-12-22T14:14:54.722Z,5.43
2022-12-22T14:17:25.158Z,7.88
2022-12-22T14:19:57.888Z,5.90
2022-12-22T14:22:38.944Z,4.65
2022-12-22T14:25:17.498Z,6.88
2022-12-22T14:27:55.978Z,5.85
2022-12-22T14:30:36.345Z,8.75
2022-12-22T14:33:17.918Z,5.57
2022-12-22T14:35:45.025Z,5.15
2022-12-22T14:38:25.386Z,8.40
2022-12-22T14:40:57.141Z,9.88
2022-12-22T14:43:28.752Z,3.95
2022-12-22T14:46:11.110Z,15.20
2022-12-22T14:48:46.525Z,12.32
2022-12-22T14:51:20.629Z,10.38
2022-12-22T14:53:52.197Z,10.55
2022-12-22T14:56:20.743Z,8.80
2022-12-22T14:58:49.306Z,14.32
2022-12-22T15:01:22.789Z,12.38
2022-12-22T15:04:07.263Z,7.88
2022-12-22T15:06:40.893Z,9.50
2022-12-22T15:09:13.810Z,11.40
2022-12-22T15:11:43.652Z,20.52
2022-12-22T15:14:19.472Z,13.35
2022-12-22T15:16:46.899Z,20.35
2022-12-22T15:19:20.810Z,14.20
2022-12-22T15:21:47.937Z,20.20
2022-12-22T15:24:16.742Z,20.90
2022-12-22T15:26:45.079Z,12.05
2022-12-22T15:29:12.463Z,17.27
2022-12-22T15:31:40.489Z,19.33
2022-12-22T15:34:27.661Z,20.98
2022-12-22T15:36:54.884Z,12.93
2022-12-22T15:39:23.386Z,14.43
2022-12-22T15:41:50.781Z,16.52
2022-12-22T15:44:17.874Z,13.65
2022-12-22T15:46:48.938Z,12.93
2022-12-22T15:49:19.996Z,13.35
2022-12-22T15:51:51.875Z,9.77
2022-12-22T15:54:19.908Z,17.35
2022-12-22T15:56:47.841Z,12.32
2022-12-22T15:59:18.235Z,19.13
2022-12-22T16:01:45.463Z,16.58
2022-12-22T16:04:12.578Z,16.20
2022-12-22T16:06:40.141Z,22.38
2022-12-22T16:09:17.466Z,20.63
2022-12-22T16:11:44.392Z,20.60
2022-12-22T16:14:14.162Z,20.70
2022-12-22T16:16:41.716Z,34.35
2022-12-22T16:19:14.186Z,15.63
2022-12-22T16:21:42.435Z,22.45
2022-12-22T16:24:35.920Z,15.07
2022-12-22T16:27:03.467Z,27.77
2022-12-22T16:29:31.067Z,18.55
2022-12-22T16:32:22.413Z,24.00
2022-12-22T16:34:49.441Z,21.17
2022-12-22T16:37:19.203Z,20.77
2022-12-22T16:39:47.153Z,23.55
2022-12-22T16:45:06.575Z,14.90
2022-12-22T16:47:36.059Z,20.05
2022-12-22T16:50:03.295Z,16.27
2022-12-22T16:52:41.460Z,22.85
2022-12-22T16:55:20.037Z,20.65
2022-12-22T16:57:47.429Z,27.02
2022-12-22T17:00:18.293Z,15.43
2022-12-22T17:02:49.811Z,19.73
2022-12-22T17:05:45.300Z,20.17
2022-12-22T17:08:27.643Z,23.73
2022-12-22T17:10:56.581Z,17.60
2022-12-22T17:13:24.152Z,22.83
2022-12-22T17:15:51.312Z,19.83
2022-12-22T17:18:20.743Z,18.92
2022-12-22T17:20:51.362Z,19.52
2022-12-22T17:24:03.842Z,16.63
2022-12-22T17:26:33.857Z,17.90
2022-12-22T17:29:01.412Z,20.48
2022-12-22T17:31:28.761Z,15.93
2022-12-22T17:33:56.618Z,13.10
2022-12-22T17:36:29.529Z,18.00
2022-12-22T17:38:57.224Z,12.82
2022-12-22T17:41:24.269Z,22.73
2022-12-22T17:43:51.318Z,21.10
2022-12-22T17:46:20.705Z,25.75
2022-12-22T17:48:48.208Z,18.85
2022-12-22T17:51:25.632Z,26.40
2022-12-22T17:53:53.823Z,21.95
2022-12-22T17:56:23.259Z,24.02
2022-12-22T17:58:50.811Z,18.02
2022-12-22T18:01:28.002Z,16.23
2022-12-22T18:03:55.975Z,26.75
2022-12-22T18:06:26.450Z,18.58
2022-12-22T18:08:55.097Z,17.25
2022-12-22T18:11:22.909Z,13.18
2022-12-22T18:13:50.538Z,20.73
2022-12-22T18:16:20.429Z,14.18
2022-12-22T18:18:47.755Z,15.93
2022-12-22T18:21:23.945Z,17.20
2022-12-22T18:23:52.005Z,11.65
2022-12-22T18:26:28.016Z,9.70
2022-12-22T18:28:55.913Z,19.38
2022-12-22T18:31:24.189Z,21.42
2022-12-22T18:33:51.639Z,18.08
2022-12-22T18:36:30.740Z,14.25
2022-12-22T18:39:00.428Z,10.18
2022-12-22T18:41:29.739Z,11.27
2022-12-22T18:43:56.816Z,12.38
2022-12-22T18:46:24.769Z,13.32
2022-12-22T18:48:51.902Z,11.13
2022-12-22T18:51:22.046Z,13.13
2022-12-22T18:53:51.460Z,13.77
2022-12-22T18:56:18.883Z,14.40
2022-12-22T18:58:46.322Z,10.13
2022-12-22T19:01:22.783Z,13.65
2022-12-22T19:03:51.808Z,13.10
2022-12-22T19:06:20.720Z,11.13
2022-12-22T19:08:48.906Z,11.52
2022-12-22T19:11:18.261Z,10.98
2022-12-22T19:13:51.224Z,9.98
2022-12-22T19:16:24.956Z,10.35
2022-12-22T19:18:52.190Z,8.32
2022-12-22T19:21:20.716Z,8.63
2022-12-22T19:23:48.261Z,12.90
2022-12-22T19:26:24.272Z,10.85
2022-12-22T19:28:57.356Z,8.20
2022-12-22T19:31:31.246Z,7.22
2022-12-22T19:34:00.792Z,8.90
2022-12-22T19:36:29.938Z,10.35
2022-12-22T19:39:04.041Z,8.93
2022-12-22T19:41:45.342Z,9.13
2022-12-22T19:44:38.416Z,8.45
2022-12-22T19:47:18.669Z,9.45
2022-12-22T19:49:46.087Z,6.57
2022-12-22T19:52:13.051Z,8.38
2022-12-22T19:54:40.048Z,8.70
2022-12-22T19:57:13.420Z,9.43
2022-12-22T19:59:42.729Z,6.85
2022-12-22T20:02:26.549Z,12.10
2022-12-22T20:04:55.274Z,11.52
2022-12-22T20:07:24.709Z,8.00
2022-12-22T20:09:52.775Z,6.10
2022-12-22T20:12:33.307Z,10.07
2022-12-22T20:15:01.543Z,6.68
2022-12-22T20:17:28.585Z,12.40
2022-12-22T20:19:55.550Z,5.78
2022-12-22T20:22:23.847Z,8.13
2022-12-22T20:24:51.521Z,10.93
2022-12-22T20:27:23.373Z,10.13
2022-12-22T20:29:50.516Z,10.95
2022-12-22T20:32:22.343Z,7.03
2022-12-22T20:34:54.252Z,10.60
2022-12-22T20:37:21.216Z,7.20
2022-12-22T20:39:48.241Z,6.28
2022-12-22T20:42:20.664Z,6.68
2022-12-22T20:45:02.828Z,5.93
2022-12-22T20:47:33.935Z,8.52
2022-12-22T20:50:00.955Z,7.40
2022-12-22T20:52:27.928Z,6.85
2022-12-22T20:54:54.834Z,10.02
2022-12-22T20:57:23.010Z,8.75
2022-12-22T20:59:56.148Z,7.82
2022-12-22T21:02:27.850Z,7.82
2022-12-22T21:04:55.669Z,7.65
2022-12-22T21:07:22.807Z,4.97
2022-12-22T21:09:49.745Z,8.60
2022-12-22T21:12:17.207Z,7.00
2022-12-22T21:14:44.838Z,6.85
2022-12-22T21:17:17.207Z,8.68
2022-12-22T21:19:44.725Z,9.90
2022-12-22T21:22:11.993Z,7.43
2022-12-22T21:24:42.018Z,7.78
2022-12-22T21:27:16.376Z,8.10
2022-12-22T21:29:43.380Z,6.72
2022-12-22T21:32:16.339Z,6.57
2022-12-22T21:34:43.371Z,5.43
2022-12-22T21:37:17.242Z,6.00
2022-12-22T21:39:45.018Z,7.13
2022-12-22T21:42:16.611Z,7.25
2022-12-22T21:44:45.221Z,7.00
2022-12-22T21:47:18.260Z,5.47
2022-12-22T21:49:45.210Z,8.38
2022-12-22T21:52:12.475Z,6.47
2022-12-22T21:54:42.192Z,7.25
2022-12-22T21:57:14.825Z,7.97
2022-12-22T21:59:41.799Z,6.68
2022-12-22T22:02:17.507Z,7.53
2022-12-22T22:04:51.839Z,6.07
2022-12-22T22:07:21.416Z,6.95
2022-12-22T22:09:48.369Z,7.72
2022-12-22T22:12:33.425Z,6.05
2022-12-22T22:15:03.348Z,7.53
2022-12-22T22:17:30.645Z,4.25
2022-12-22T22:19:57.627Z,5.03
2022-12-22T22:22:24.712Z,3.90
2022-12-22T22:24:51.683Z,7.78
2022-12-22T22:27:18.639Z,7.18
2022-12-22T22:29:45.827Z,7.10
2022-12-22T22:32:13.031Z,8.00
2022-12-22T22:34:40.002Z,6.15
2022-12-22T22:37:06.979Z,7.93
2022-12-22T22:39:34.072Z,9.40
2022-12-22T22:42:01.105Z,7.38
2022-12-22T22:44:28.294Z,6.05
2022-12-22T22:46:55.371Z,7.47
2022-12-22T22:49:28.019Z,7.45
2022-12-22T22:51:55.597Z,5.82
2022-12-22T22:54:22.600Z,7.95
2022-12-22T22:56:49.606Z,8.68
2022-12-22T22:59:16.685Z,8.48
2022-12-22T23:01:43.814Z,9.82
2022-12-22T23:04:14.072Z,9.10
2022-12-22T23:06:41.811Z,4.78
2022-12-22T23:09:09.883Z,6.85
2022-12-22T23:11:39.624Z,6.45
2022-12-22T23:14:06.867Z,6.32
2022-12-22T23:16:38.430Z,9.02
2022-12-22T23:19:06.171Z,8.13
2022-12-22T23:21:33.691Z,4.18
2022-12-22T23:24:00.733Z,4.10
2022-12-22T23:26:27.753Z,7.07
2022-12-22T23:29:00.982Z,4.65
2022-12-22T23:31:30.735Z,4.53
2022-12-22T23:33:57.881Z,7.22
2022-12-22T23:36:24.906Z,6.30
2022-12-22T23:38:52.233Z,7.43
2022-12-22T23:41:19.818Z,6.68
2022-12-22T23:43:47.033Z,4.93
2022-12-22T23:46:16.920Z,5.60
2022-12-22T23:48:44.081Z,7.88
2022-12-22T23:51:12.238Z,8.63
2022-12-22T23:53:39.369Z,5.82
2022-12-22T23:56:06.588Z,5.70
2022-12-22T23:58:33.615Z,5.13
